createdAt,value
2023-04-05T00:00:22.872Z,10.80
2023-04-05T00:02:49.601Z,13.68
2023-04-05T00:05:29.315Z,8.70
2023-04-05T00:08:04.251Z,9.50
2023-04-05T00:10:31.819Z,10.48
2023-04-05T00:12:59.082Z,9.40
2023-04-05T00:15:27.500Z,9.43
2023-04-05T00:17:54.920Z,9.85
2023-04-05T00:20:21.576Z,8.43
2023-04-05T00:22:50.494Z,7.57
2023-04-05T00:25:18.438Z,9.15
2023-04-05T00:27:45.216Z,13.07
2023-04-05T00:30:12.739Z,13.55
2023-04-05T00:32:39.402Z,16.50
2023-04-05T00:35:06.555Z,11.27
2023-04-05T00:37:33.283Z,8.93
2023-04-05T00:39:59.958Z,9.75
2023-04-05T00:42:27.153Z,10.73
2023-04-05T00:44:53.792Z,9.82
2023-04-05T00:47:20.560Z,11.63
2023-04-05T00:49:47.290Z,10.95
2023-04-05T00:52:15.394Z,10.75
2023-04-05T00:54:43.407Z,11.38
2023-04-05T00:57:11.062Z,12.57
2023-04-05T00:59:37.810Z,10.95
2023-04-05T01:02:26.801Z,11.05
2023-04-05T01:05:19.324Z,14.93
2023-04-05T01:08:02.063Z,9.95
2023-04-05T01:10:39.491Z,11.30
2023-04-05T01:13:06.707Z,11.50
2023-04-05T01:15:33.383Z,14.38
2023-04-05T01:18:02.265Z,11.07
2023-04-05T01:20:34.395Z,19.58
2023-04-05T01:23:58.534Z,19.52
2023-04-05T01:26:54.156Z,12.82
2023-04-05T01:29:59.574Z,11.13
2023-04-05T01:33:03.487Z,13.50
2023-04-05T01:35:45.329Z,9.60
2023-04-05T01:38:17.047Z,19.20
2023-04-05T01:40:43.959Z,11.18
2023-04-05T01:43:15.072Z,15.38
2023-04-05T01:45:43.014Z,12.07
2023-04-05T01:48:09.916Z,21.48
2023-04-05T01:50:36.783Z,12.25
2023-04-05T01:53:03.826Z,17.75
2023-04-05T01:55:30.466Z,15.82
2023-04-05T01:57:57.557Z,13.40
2023-04-05T02:00:24.344Z,16.88
2023-04-05T02:02:51.528Z,18.10
2023-04-05T02:05:18.224Z,18.48
2023-04-05T02:07:44.862Z,15.73
2023-04-05T02:10:11.527Z,23.98
2023-04-05T02:12:38.192Z,19.65
2023-04-05T02:15:05.527Z,21.25
2023-04-05T02:17:34.174Z,20.48
2023-04-05T02:20:06.312Z,26.45
2023-04-05T02:22:32.951Z,17.40
2023-04-05T02:24:59.567Z,16.00
2023-04-05T02:27:26.275Z,21.40
2023-04-05T02:29:53.059Z,14.65
2023-04-05T02:32:19.770Z,15.55
2023-04-05T02:34:46.714Z,15.80
2023-04-05T02:37:13.346Z,15.93
2023-04-05T02:39:40.119Z,14.05
2023-04-05T02:42:06.807Z,12.43
2023-04-05T02:44:33.503Z,18.35
2023-04-05T02:47:00.150Z,19.70
2023-04-05T02:49:26.828Z,14.23
2023-04-05T02:51:53.443Z,14.63
2023-04-05T02:54:20.264Z,15.60
2023-04-05T02:56:47.237Z,19.35
2023-04-05T02:59:14.763Z,18.33
2023-04-05T03:01:44.473Z,21.95
2023-04-05T03:04:12.303Z,16.40
2023-04-05T03:06:39.195Z,20.55
2023-04-05T03:09:05.828Z,24.75
2023-04-05T03:11:33.984Z,16.15
2023-04-05T03:14:00.883Z,15.27
2023-04-05T03:16:28.582Z,17.08
2023-04-05T03:18:55.887Z,15.50
2023-04-05T03:21:22.714Z,16.73
2023-04-05T03:23:50.392Z,34.38
2023-04-05T03:26:17.067Z,12.63
2023-04-05T03:28:44.215Z,20.80
2023-04-05T03:31:11.912Z,18.02
2023-04-05T03:33:38.624Z,19.02
2023-04-05T03:36:06.286Z,18.20
2023-04-05T03:38:33.024Z,21.23
2023-04-05T03:40:59.652Z,17.98
2023-04-05T03:43:27.774Z,15.63
2023-04-05T03:45:54.399Z,18.63
2023-04-05T03:48:21.785Z,14.15
2023-04-05T03:50:48.543Z,18.90
2023-04-05T03:53:18.771Z,16.13
2023-04-05T03:55:49.309Z,12.70
2023-04-05T03:58:17.061Z,16.80
2023-04-05T04:00:43.756Z,10.02
2023-04-05T04:03:10.443Z,11.77
2023-04-05T04:05:39.351Z,14.65
2023-04-05T04:08:06.676Z,18.98
2023-04-05T04:10:34.663Z,12.82
2023-04-05T04:13:01.271Z,14.70
2023-04-05T04:15:28.035Z,12.82
2023-04-05T04:17:54.801Z,11.25
2023-04-05T04:20:21.467Z,15.05
2023-04-05T04:22:49.999Z,17.45
2023-04-05T04:25:18.868Z,26.77
2023-04-05T04:27:46.802Z,14.45
2023-04-05T04:30:15.080Z,15.52
2023-04-05T04:32:52.151Z,16.05
2023-04-05T04:35:27.922Z,11.57
2023-04-05T04:38:05.220Z,17.92
2023-04-05T04:40:38.958Z,16.10
2023-04-05T04:43:06.785Z,16.98
2023-04-05T04:45:37.862Z,19.58
2023-04-05T04:48:05.380Z,16.65
2023-04-05T04:50:32.886Z,18.55
2023-04-05T04:53:00.589Z,16.52
2023-04-05T04:55:30.447Z,23.52
2023-04-05T04:57:57.187Z,16.77
2023-04-05T05:00:24.186Z,19.92
2023-04-05T05:02:52.552Z,17.10
2023-04-05T05:05:26.515Z,18.48
2023-04-05T05:07:53.649Z,21.67
2023-04-05T05:10:20.646Z,20.02
2023-04-05T05:12:48.818Z,15.50
2023-04-05T05:15:15.638Z,16.67
2023-04-05T05:17:42.926Z,26.70
2023-04-05T05:20:11.144Z,36.63
2023-04-05T05:22:38.687Z,23.33
2023-04-05T05:25:06.981Z,26.00
2023-04-05T05:27:36.803Z,26.92
2023-04-05T05:30:04.172Z,19.52
2023-04-05T05:32:30.849Z,17.15
2023-04-05T05:34:57.515Z,15.77
2023-04-05T05:37:32.257Z,25.90
2023-04-05T05:39:59.305Z,19.65
2023-04-05T05:42:27.192Z,22.55
2023-04-05T05:44:54.085Z,29.25
2023-04-05T05:47:21.010Z,24.02
2023-04-05T05:49:49.617Z,15.93
2023-04-05T05:52:16.982Z,23.83
2023-04-05T05:54:43.697Z,14.07
2023-04-05T05:57:10.398Z,17.05
2023-04-05T05:59:37.041Z,19.13
2023-04-05T06:02:03.745Z,12.82
2023-04-05T06:04:30.554Z,13.85
2023-04-05T06:06:58.033Z,17.90
2023-04-05T06:09:24.724Z,12.88
2023-04-05T06:11:56.751Z,24.50
2023-04-05T06:16:51.486Z,14.90
2023-04-05T06:19:18.117Z,16.23
2023-04-05T06:21:44.740Z,16.88
2023-04-05T06:24:11.409Z,19.30
2023-04-05T06:26:38.051Z,19.65
2023-04-05T06:29:04.710Z,14.68
2023-04-05T06:31:33.096Z,13.82
2023-04-05T06:34:00.049Z,13.18
2023-04-05T06:36:27.749Z,12.15
2023-04-05T06:38:54.660Z,14.95
2023-04-05T06:41:21.307Z,14.77
2023-04-05T06:43:47.915Z,11.25
2023-04-05T06:46:14.616Z,12.93
2023-04-05T06:48:42.257Z,14.27
2023-04-05T06:51:08.967Z,10.80
2023-04-05T06:53:35.582Z,18.15
2023-04-05T06:56:02.971Z,11.60
2023-04-05T06:58:30.003Z,17.30
2023-04-05T07:00:56.796Z,7.65
2023-04-05T07:03:23.463Z,12.95
2023-04-05T07:06:01.633Z,9.82
2023-04-05T07:08:32.693Z,14.85
2023-04-05T07:10:59.493Z,9.23
2023-04-05T07:13:26.604Z,11.50
2023-04-05T07:16:00.517Z,8.68
2023-04-05T07:18:27.608Z,10.20
2023-04-05T07:21:00.178Z,9.20
2023-04-05T07:23:28.323Z,6.95
2023-04-05T07:25:56.082Z,8.93
2023-04-05T07:28:23.090Z,11.18
2023-04-05T07:30:49.946Z,9.35
2023-04-05T07:33:16.688Z,8.07
2023-04-05T07:35:43.353Z,5.97
2023-04-05T07:38:11.365Z,7.75
2023-04-05T07:40:38.068Z,8.20
2023-04-05T07:43:04.801Z,8.25
2023-04-05T07:45:31.502Z,10.60
2023-04-05T07:47:58.201Z,8.77
2023-04-05T07:50:26.172Z,9.02
2023-04-05T07:52:52.798Z,7.28
2023-04-05T07:55:19.489Z,13.65
2023-04-05T07:57:46.107Z,8.23
2023-04-05T08:00:13.836Z,6.68
2023-04-05T08:02:40.885Z,9.40
2023-04-05T08:05:08.131Z,9.23
2023-04-05T08:07:34.798Z,8.15
2023-04-05T08:10:01.639Z,10.23
2023-04-05T08:12:28.331Z,8.48
2023-04-05T08:14:54.993Z,6.45
2023-04-05T08:17:21.613Z,12.52
2023-04-05T08:19:49.428Z,11.48
2023-04-05T08:22:17.819Z,7.28
2023-04-05T08:24:44.803Z,8.73
2023-04-05T08:27:11.684Z,9.30
2023-04-05T08:29:38.608Z,10.98
2023-04-05T08:32:05.429Z,6.43
2023-04-05T08:34:32.098Z,8.98
2023-04-05T08:37:00.129Z,10.07
2023-04-05T08:39:27.179Z,11.60
2023-04-05T08:42:17.658Z,6.53
2023-04-05T08:44:52.396Z,8.02
2023-04-05T08:47:21.197Z,7.35
2023-04-05T08:49:48.927Z,5.60
2023-04-05T08:52:16.244Z,5.15
2023-04-05T08:54:43.147Z,7.32
2023-04-05T08:57:10.467Z,5.32
2023-04-05T08:59:39.319Z,6.18
2023-04-05T09:02:12.364Z,6.32
2023-04-05T09:04:44.946Z,7.75
2023-04-05T09:07:14.227Z,8.13
2023-04-05T09:09:46.248Z,9.30
2023-04-05T09:12:13.970Z,5.93
2023-04-05T09:14:41.290Z,7.28
2023-04-05T09:17:08.335Z,8.73
2023-04-05T09:19:35.006Z,4.85
2023-04-05T09:22:08.693Z,7.22
2023-04-05T09:24:43.010Z,8.75
2023-04-05T09:27:11.934Z,10.07
2023-04-05T09:29:40.609Z,5.72
2023-04-05T09:32:08.746Z,9.35
2023-04-05T09:34:39.161Z,6.70
2023-04-05T09:37:16.935Z,5.05
2023-04-05T09:39:44.677Z,8.45
2023-04-05T09:42:16.498Z,10.30
2023-04-05T09:45:02.979Z,9.43
2023-04-05T09:47:33.088Z,8.65
2023-04-05T09:50:19.142Z,6.78
2023-04-05T09:52:45.889Z,6.35
2023-04-05T09:55:13.409Z,5.13
2023-04-05T09:57:43.682Z,5.60
2023-04-05T10:00:21.843Z,8.95
2023-04-05T10:02:53.262Z,10.27
2023-04-05T10:05:24.008Z,7.47
2023-04-05T10:07:51.027Z,7.22
2023-04-05T10:10:18.112Z,8.40
2023-04-05T10:12:47.095Z,6.18
2023-04-05T10:15:17.970Z,5.72
2023-04-05T10:18:08.814Z,6.32
2023-04-05T10:20:41.059Z,8.23
2023-04-05T10:23:12.379Z,6.13
2023-04-05T10:26:19.426Z,6.05
2023-04-05T10:28:52.415Z,7.32
2023-04-05T10:31:38.273Z,7.00
2023-04-05T10:34:14.258Z,6.70
2023-04-05T10:37:01.869Z,4.18
2023-04-05T10:39:33.733Z,10.98
2023-04-05T10:42:05.286Z,4.65
2023-04-05T10:44:33.911Z,6.85
2023-04-05T10:47:01.231Z,8.13
2023-04-05T10:49:49.511Z,6.72
2023-04-05T10:52:18.221Z,8.18
2023-04-05T10:54:45.183Z,7.93
2023-04-05T10:57:12.810Z,5.10
2023-04-05T10:59:45.165Z,6.18
2023-04-05T11:04:41.802Z,5.72
2023-04-05T11:07:17.018Z,10.73
2023-04-05T11:10:04.334Z,5.65
2023-04-05T11:13:07.566Z,6.65
2023-04-05T11:15:35.143Z,5.78
2023-04-05T11:18:44.163Z,4.53
2023-04-05T11:21:10.873Z,5.65
2023-04-05T11:24:03.760Z,5.30
2023-04-05T11:29:50.626Z,4.65
2023-04-05T11:32:17.470Z,4.60
2023-04-05T11:34:44.973Z,4.53
2023-04-05T11:37:11.727Z,7.47
2023-04-05T11:39:39.268Z,9.73
2023-04-05T11:42:09.665Z,3.92
2023-04-05T11:44:49.031Z,5.03
2023-04-05T11:47:21.777Z,5.32
2023-04-05T11:49:52.200Z,7.22
2023-04-05T11:52:21.791Z,5.00
2023-04-05T11:54:49.700Z,6.47
2023-04-05T11:57:21.356Z,5.72
2023-04-05T11:59:50.183Z,5.68
2023-04-05T12:02:17.758Z,4.95
2023-04-05T12:04:44.432Z,4.45
2023-04-05T12:07:14.948Z,5.55
2023-04-05T12:10:02.841Z,8.40
2023-04-05T12:12:40.853Z,6.20
2023-04-05T12:15:09.374Z,4.10
2023-04-05T12:17:50.184Z,4.35
2023-04-05T12:20:20.109Z,6.40
2023-04-05T12:22:48.752Z,5.93
2023-04-05T12:25:16.620Z,6.35
2023-04-05T12:27:43.503Z,3.40
2023-04-05T12:30:15.962Z,6.72
2023-04-05T12:35:24.848Z,4.32
2023-04-05T12:37:52.131Z,3.80
2023-04-05T12:40:23.581Z,6.88
2023-04-05T12:42:50.616Z,6.32
2023-04-05T12:45:18.590Z,4.70
2023-04-05T12:47:53.718Z,5.53
2023-04-05T12:50:29.642Z,5.13
2023-04-05T12:53:01.038Z,6.03
2023-04-05T12:55:31.285Z,7.85
2023-04-05T12:58:01.988Z,6.32
2023-04-05T13:00:30.020Z,6.97
2023-04-05T13:02:58.486Z,5.40
2023-04-05T13:05:30.368Z,2.55
2023-04-05T13:07:57.785Z,7.80
2023-04-05T13:10:25.867Z,6.32
2023-04-05T13:12:52.638Z,11.82
2023-04-05T13:15:19.753Z,4.95
2023-04-05T13:17:49.738Z,5.45
2023-04-05T13:20:17.988Z,3.28
2023-04-05T13:22:45.370Z,4.93
2023-04-05T13:25:12.231Z,6.95
2023-04-05T13:27:38.877Z,5.57
2023-04-05T13:30:07.460Z,6.60
2023-04-05T13:32:34.164Z,5.07
2023-04-05T13:35:00.989Z,5.68
2023-04-05T13:37:27.886Z,10.20
2023-04-05T13:39:54.547Z,5.97
2023-04-05T13:42:21.731Z,6.70
2023-04-05T13:44:48.285Z,6.82
2023-04-05T13:47:16.176Z,7.28
2023-04-05T13:49:43.416Z,5.88
2023-04-05T13:52:10.394Z,4.80
2023-04-05T13:54:37.035Z,9.30
2023-04-05T13:57:04.198Z,6.60
2023-04-05T13:59:31.034Z,13.35
2023-04-05T14:01:57.887Z,4.22
2023-04-05T14:04:24.626Z,7.03
2023-04-05T14:06:51.272Z,10.18
2023-04-05T14:09:18.076Z,4.35
2023-04-05T14:11:44.820Z,4.15
2023-04-05T14:14:11.503Z,7.63
2023-04-05T14:16:38.312Z,6.95
2023-04-05T14:19:05.349Z,5.57
2023-04-05T14:21:33.066Z,8.80
2023-04-05T14:24:01.983Z,9.90
2023-04-05T14:26:28.746Z,5.05
2023-04-05T14:28:55.518Z,8.98
2023-04-05T14:31:25.208Z,7.28
2023-04-05T14:33:52.408Z,4.55
2023-04-05T14:36:19.234Z,8.07
2023-04-05T14:38:46.225Z,3.92
2023-04-05T14:41:13.004Z,8.90
2023-04-05T14:43:39.958Z,4.80
2023-04-05T14:46:06.986Z,5.15
2023-04-05T14:48:34.161Z,5.93
2023-04-05T14:51:01.004Z,6.32
2023-04-05T14:53:27.767Z,7.00
2023-04-05T14:55:54.534Z,5.93
2023-04-05T14:58:21.256Z,6.60
2023-04-05T15:00:52.156Z,6.05
2023-04-05T15:03:19.851Z,4.13
2023-04-05T15:05:47.706Z,4.25
2023-04-05T15:08:15.110Z,6.32
2023-04-05T15:10:42.925Z,6.25
2023-04-05T15:13:10.566Z,7.05
2023-04-05T15:15:37.803Z,4.78
2023-04-05T15:18:05.205Z,3.85
2023-04-05T15:20:32.741Z,4.93
2023-04-05T15:22:59.524Z,5.55
2023-04-05T15:25:26.232Z,10.70
2023-04-05T15:27:55.034Z,6.82
2023-04-05T15:30:22.078Z,3.42
2023-04-05T15:32:48.874Z,6.47
2023-04-05T15:35:15.639Z,7.40
2023-04-05T15:37:42.665Z,6.78
2023-04-05T15:40:10.014Z,9.05
2023-04-05T15:42:36.763Z,9.70
2023-04-05T15:45:03.876Z,9.13
2023-04-05T15:47:30.568Z,4.47
2023-04-05T15:49:57.345Z,5.55
2023-04-05T15:52:24.093Z,5.30
2023-04-05T15:54:50.749Z,5.75
2023-04-05T15:57:17.502Z,7.30
2023-04-05T15:59:44.535Z,6.35
2023-04-05T16:02:11.432Z,7.57
2023-04-05T16:04:39.315Z,5.88
2023-04-05T16:07:07.738Z,6.63
2023-04-05T16:09:34.505Z,7.18
2023-04-05T16:12:02.428Z,4.15
2023-04-05T16:14:29.185Z,5.95
2023-04-05T16:16:55.962Z,4.75
2023-04-05T16:19:25.963Z,3.88
2023-04-05T16:21:53.012Z,9.38
2023-04-05T16:24:20.118Z,7.20
2023-04-05T16:26:46.942Z,4.07
2023-04-05T16:29:13.684Z,4.57
2023-04-05T16:31:40.483Z,5.22
2023-04-05T16:34:08.064Z,4.97
2023-04-05T16:36:34.794Z,7.53
2023-04-05T16:39:01.802Z,6.53
2023-04-05T16:41:28.954Z,9.57
2023-04-05T16:43:55.733Z,8.07
2023-04-05T16:46:23.327Z,6.15
2023-04-05T16:48:50.084Z,4.95
2023-04-05T16:51:16.952Z,7.13
2023-04-05T16:53:43.810Z,4.43
2023-04-05T16:56:10.776Z,7.70
2023-04-05T16:58:37.437Z,4.75
2023-04-05T17:01:04.281Z,5.35
2023-04-05T17:03:31.066Z,4.13
2023-04-05T17:05:57.905Z,5.93
2023-04-05T17:08:24.525Z,3.78
2023-04-05T17:10:51.388Z,2.30
2023-04-05T17:13:18.249Z,3.78
2023-04-05T17:15:45.186Z,6.43
2023-04-05T17:18:12.234Z,5.15
2023-04-05T17:20:38.967Z,5.32
2023-04-05T17:23:05.705Z,6.57
2023-04-05T17:25:32.442Z,5.10
2023-04-05T17:27:59.228Z,7.43
2023-04-05T17:30:26.331Z,8.90
2023-04-05T17:32:53.271Z,4.90
2023-04-05T17:35:20.087Z,7.43
2023-04-05T17:37:47.702Z,6.85
2023-04-05T17:40:16.141Z,8.88
2023-04-05T17:42:42.788Z,8.15
2023-04-05T17:45:10.246Z,8.15
2023-04-05T17:47:37.476Z,11.48
2023-04-05T17:50:04.710Z,5.53
2023-04-05T17:52:31.806Z,12.63
2023-04-05T17:54:58.464Z,5.07
2023-04-05T17:57:25.333Z,9.85
2023-04-05T17:59:52.395Z,7.50
2023-04-05T18:02:19.143Z,5.57
2023-04-05T18:04:45.997Z,10.10
2023-04-05T18:07:12.643Z,7.15
2023-04-05T18:09:41.987Z,5.38
2023-04-05T18:12:09.546Z,7.15
2023-04-05T18:14:37.057Z,5.05
2023-04-05T18:17:07.069Z,11.27
2023-04-05T18:19:33.777Z,9.32
2023-04-05T18:22:00.657Z,10.45
2023-04-05T18:24:27.347Z,10.68
2023-04-05T18:26:54.084Z,16.05
2023-04-05T18:29:22.718Z,14.60
2023-04-05T18:31:49.480Z,12.07
2023-04-05T18:34:16.383Z,10.23
2023-04-05T18:36:46.354Z,8.45
2023-04-05T18:39:13.606Z,15.32
2023-04-05T18:41:40.239Z,13.93
2023-04-05T18:44:09.189Z,12.43
2023-04-05T18:46:35.921Z,15.50
2023-04-05T18:49:02.652Z,79.68
2023-04-05T18:51:29.371Z,109.50
2023-04-05T18:53:56.215Z,191.13
2023-04-05T18:56:23.160Z,61.42
2023-04-05T18:58:50.990Z,40.40
2023-04-05T19:01:19.845Z,23.30
2023-04-05T19:03:47.350Z,23.73
2023-04-05T19:06:14.323Z,17.30
2023-04-05T19:08:41.323Z,13.00
2023-04-05T19:11:08.520Z,12.98
2023-04-05T19:13:35.437Z,9.18
2023-04-05T19:16:02.361Z,7.95
2023-04-05T19:18:29.930Z,13.82
2023-04-05T19:20:58.698Z,14.68
2023-04-05T19:23:26.644Z,12.35
2023-04-05T19:26:12.254Z,9.88
2023-04-05T19:28:59.377Z,12.00
2023-04-05T19:31:46.770Z,12.73
2023-04-05T19:34:33.958Z,13.75
2023-04-05T19:37:21.019Z,16.20
2023-04-05T19:40:08.936Z,15.48
2023-04-05T19:42:56.533Z,11.32
2023-04-05T19:45:43.635Z,13.52
2023-04-05T19:48:41.412Z,15.52
2023-04-05T19:51:31.671Z,11.82
2023-04-05T19:54:27.551Z,14.38
2023-04-05T19:57:17.839Z,11.13
2023-04-05T20:00:55.284Z,13.25
2023-04-05T20:03:42.525Z,14.32
2023-04-05T20:06:31.942Z,16.15
2023-04-05T20:09:23.122Z,11.10
2023-04-05T20:12:13.292Z,9.15
2023-04-05T20:15:00.310Z,9.30
2023-04-05T20:17:54.564Z,6.70
2023-04-05T20:20:44.461Z,12.10
2023-04-05T20:23:31.643Z,8.70
2023-04-05T20:26:27.114Z,9.45
2023-04-05T20:29:17.048Z,16.15
2023-04-05T20:32:05.904Z,11.38
2023-04-05T20:34:53.018Z,12.60
2023-04-05T20:37:39.974Z,10.63
2023-04-05T20:40:27.630Z,15.57
2023-04-05T20:43:14.551Z,13.90
2023-04-05T20:46:03.178Z,12.15
2023-04-05T20:48:51.081Z,11.18
2023-04-05T20:51:39.868Z,14.75
2023-04-05T20:54:28.283Z,18.63
2023-04-05T20:57:16.253Z,12.25
2023-04-05T21:00:03.770Z,11.13
2023-04-05T21:02:50.933Z,17.02
2023-04-05T21:05:38.703Z,8.77
2023-04-05T21:08:26.500Z,14.48
2023-04-05T21:11:13.473Z,10.07
2023-04-05T21:14:00.552Z,15.18
2023-04-05T21:16:47.580Z,12.35
2023-04-05T21:19:34.706Z,7.68
2023-04-05T21:22:21.722Z,7.80
2023-04-05T21:25:09.410Z,11.27
2023-04-05T21:27:56.402Z,19.33
2023-04-05T21:30:43.824Z,22.00
2023-04-05T21:33:30.844Z,10.68
2023-04-05T21:36:17.856Z,10.82
2023-04-05T21:39:04.949Z,13.50
2023-04-05T21:41:51.933Z,11.98
2023-04-05T21:44:38.954Z,18.75
2023-04-05T21:47:26.078Z,16.70
2023-04-05T21:50:13.136Z,12.68
2023-04-05T21:53:00.170Z,15.10
2023-04-05T21:55:47.058Z,10.00
2023-04-05T21:58:34.018Z,12.05
2023-04-05T22:01:21.800Z,13.95
2023-04-05T22:04:08.886Z,11.50
2023-04-05T22:06:55.951Z,12.73
2023-04-05T22:09:43.519Z,11.05
2023-04-05T22:12:30.699Z,10.73
2023-04-05T22:15:17.747Z,9.45
2023-04-05T22:18:05.636Z,14.18
2023-04-05T22:20:52.795Z,13.10
2023-04-05T22:23:41.774Z,15.20
2023-04-05T22:26:29.956Z,12.15
2023-04-05T22:29:17.099Z,16.17
2023-04-05T22:32:04.442Z,9.90
2023-04-05T22:34:51.536Z,11.85
2023-04-05T22:37:40.577Z,14.98
2023-04-05T22:40:27.849Z,12.15
2023-04-05T22:43:14.881Z,8.75
2023-04-05T22:46:01.927Z,13.25
2023-04-05T22:48:48.967Z,11.85
2023-04-05T22:51:35.950Z,10.52
2023-04-05T22:54:23.027Z,9.93
2023-04-05T22:57:11.458Z,11.40
2023-04-05T22:59:58.710Z,19.23
2023-04-05T23:02:45.788Z,17.40
2023-04-05T23:05:34.024Z,13.23
2023-04-05T23:08:21.187Z,15.23
2023-04-05T23:11:08.220Z,12.90
2023-04-05T23:13:55.260Z,13.18
2023-04-05T23:16:42.306Z,16.42
2023-04-05T23:19:29.270Z,9.88
2023-04-05T23:22:16.252Z,13.85
2023-04-05T23:25:04.719Z,9.93
2023-04-05T23:27:53.834Z,9.88
2023-04-05T23:30:40.841Z,12.18
2023-04-05T23:33:27.840Z,16.05
2023-04-05T23:36:14.923Z,19.08
2023-04-05T23:39:02.048Z,16.83
2023-04-05T23:41:49.037Z,16.02
2023-04-05T23:44:37.467Z,20.02
2023-04-05T23:47:24.535Z,12.80
2023-04-05T23:50:11.673Z,18.35
2023-04-05T23:53:00.207Z,14.95
2023-04-05T23:55:47.300Z,16.88
2023-04-05T23:58:34.401Z,19.83
